sensor_id;sensor_type;location;lat;lon;timestamp;pressure;altitude;pressure_sealevel;temperature;humidity
43745;BME280;29359;53.048;8.732;2023-05-08T00:00:23;102426.41;;;9.99;76.68
43745;BME280;29359;53.048;8.732;2023-05-08T00:02:25;102419.38;;;9.98;75.90
43745;BME280;29359;53.048;8.732;2023-05-08T00:04:26;102427.31;;;9.98;76.08
43745;BME280;29359;53.048;8.732;2023-05-08T00:06:28;102424.63;;;9.95;76.46
43745;BME280;29359;53.048;8.732;2023-05-08T00:08:29;102421.13;;;9.94;76.43
43745;BME280;29359;53.048;8.732;2023-05-08T00:10:31;102421.13;;;9.93;75.76
43745;BME280;29359;53.048;8.732;2023-05-08T00:12:32;102422.88;;;9.91;76.48
43745;BME280;29359;53.048;8.732;2023-05-08T00:14:34;102428.16;;;9.88;75.76
43745;BME280;29359;53.048;8.732;2023-05-08T00:16:35;102430.78;;;9.86;75.96
43745;BME280;29359;53.048;8.732;2023-05-08T00:18:37;102429.91;;;9.83;76.31
43745;BME280;29359;53.048;8.732;2023-05-08T00:20:39;102429.03;;;9.82;76.76
43745;BME280;29359;53.048;8.732;2023-05-08T00:22:42;102437.81;;;9.81;75.92
43745;BME280;29359;53.048;8.732;2023-05-08T00:24:43;102438.72;;;9.79;76.03
43745;BME280;29359;53.048;8.732;2023-05-08T00:26:45;102438.72;;;9.79;75.87
43745;BME280;29359;53.048;8.732;2023-05-08T00:28:46;102440.47;;;9.76;76.32
43745;BME280;29359;53.048;8.732;2023-05-08T00:30:48;102436.06;;;9.74;76.14
43745;BME280;29359;53.048;8.732;2023-05-08T00:32:50;102438.69;;;9.72;75.62
43745;BME280;29359;53.048;8.732;2023-05-08T00:34:52;102438.69;;;9.71;76.21
43745;BME280;29359;53.048;8.732;2023-05-08T00:36:55;102434.31;;;9.68;75.62
43745;BME280;29359;53.048;8.732;2023-05-08T00:38:56;102429.03;;;9.68;76.02
43745;BME280;29359;53.048;8.732;2023-05-08T00:40:58;102433.44;;;9.69;75.87
43745;BME280;29359;53.048;8.732;2023-05-08T00:43:00;102436.94;;;9.68;75.85
43745;BME280;29359;53.048;8.732;2023-05-08T00:45:02;102439.59;;;9.67;75.37
43745;BME280;29359;53.048;8.732;2023-05-08T00:47:04;102434.31;;;9.65;75.98
43745;BME280;29359;53.048;8.732;2023-05-08T00:49:07;102436.94;;;9.64;75.82
43745;BME280;29359;53.048;8.732;2023-05-08T00:51:12;102433.44;;;9.63;75.45
43745;BME280;29359;53.048;8.732;2023-05-08T00:53:14;102429.91;;;9.61;75.94
43745;BME280;29359;53.048;8.732;2023-05-08T00:55:15;102429.91;;;9.61;75.33
43745;BME280;29359;53.048;8.732;2023-05-08T00:57:17;102434.31;;;9.61;75.48
43745;BME280;29359;53.048;8.732;2023-05-08T00:59:20;102432.53;;;9.60;76.08
43745;BME280;29359;53.048;8.732;2023-05-08T01:01:22;102430.78;;;9.60;75.30
43745;BME280;29359;53.048;8.732;2023-05-08T01:03:24;102428.16;;;9.60;75.72
43745;BME280;29359;53.048;8.732;2023-05-08T01:05:26;102428.16;;;9.59;75.67
43745;BME280;29359;53.048;8.732;2023-05-08T01:07:28;102425.50;;;9.59;75.34
43745;BME280;29359;53.048;8.732;2023-05-08T01:09:30;102422.00;;;9.58;75.70
43745;BME280;29359;53.048;8.732;2023-05-08T01:11:48;102420.25;;;9.59;75.56
43745;BME280;29359;53.048;8.732;2023-05-08T01:14:15;102419.34;;;9.57;75.67
43745;BME280;29359;53.048;8.732;2023-05-08T01:33:09;102412.28;;;9.47;75.59
43745;BME280;29359;53.048;8.732;2023-05-08T01:40:03;102412.28;;;9.40;76.26
43745;BME280;29359;53.048;8.732;2023-05-08T01:42:09;102411.41;;;9.38;76.17
43745;BME280;29359;53.048;8.732;2023-05-08T01:44:15;102412.28;;;9.39;75.92
43745;BME280;29359;53.048;8.732;2023-05-08T01:46:26;102414.03;;;9.37;75.89
43745;BME280;29359;53.048;8.732;2023-05-08T01:48:34;102415.78;;;9.35;75.92
43745;BME280;29359;53.048;8.732;2023-05-08T01:50:47;102414.91;;;9.33;76.33
43745;BME280;29359;53.048;8.732;2023-05-08T01:52:57;102411.38;;;9.31;75.56
43745;BME280;29359;53.048;8.732;2023-05-08T01:55:04;102425.44;;;9.28;75.86
43745;BME280;29359;53.048;8.732;2023-05-08T01:57:08;102423.66;;;9.27;75.05
43745;BME280;29359;53.048;8.732;2023-05-08T01:59:13;102427.19;;;9.25;75.55
43745;BME280;29359;53.048;8.732;2023-05-08T02:01:19;102429.81;;;9.23;75.49
43745;BME280;29359;53.048;8.732;2023-05-08T02:03:23;102429.81;;;9.22;76.00
43745;BME280;29359;53.048;8.732;2023-05-08T02:05:26;102426.28;;;9.20;75.27
43745;BME280;29359;53.048;8.732;2023-05-08T02:07:29;102427.16;;;9.19;75.70
43745;BME280;29359;53.048;8.732;2023-05-08T02:09:31;102424.53;;;9.16;75.14
43745;BME280;29359;53.048;8.732;2023-05-08T02:11:34;102422.75;;;9.15;75.37
43745;BME280;29359;53.048;8.732;2023-05-08T02:13:38;102425.41;;;9.15;75.04
43745;BME280;29359;53.048;8.732;2023-05-08T02:15:40;102420.13;;;9.11;75.19
43745;BME280;29359;53.048;8.732;2023-05-08T02:17:42;102423.59;;;9.09;75.19
43745;BME280;29359;53.048;8.732;2023-05-08T02:19:47;102423.59;;;9.07;75.07
43745;BME280;29359;53.048;8.732;2023-05-08T02:21:50;102421.81;;;9.05;75.21
43745;BME280;29359;53.048;8.732;2023-05-08T02:23:55;102427.09;;;9.03;75.87
43745;BME280;29359;53.048;8.732;2023-05-08T02:25:59;102434.09;;;9.00;75.88
43745;BME280;29359;53.048;8.732;2023-05-08T02:28:02;102430.59;;;8.98;75.80
43745;BME280;29359;53.048;8.732;2023-05-08T02:30:05;102429.69;;;8.94;76.54
43745;BME280;29359;53.048;8.732;2023-05-08T02:32:07;102439.34;;;8.92;75.50
43745;BME280;29359;53.048;8.732;2023-05-08T02:34:09;102438.47;;;8.90;76.26
43745;BME280;29359;53.048;8.732;2023-05-08T02:36:15;102433.19;;;8.90;76.29
43745;BME280;29359;53.048;8.732;2023-05-08T02:38:20;102433.19;;;8.89;75.33
43745;BME280;29359;53.048;8.732;2023-05-08T02:40:25;102431.41;;;8.86;75.14
43745;BME280;29359;53.048;8.732;2023-05-08T02:42:28;102434.06;;;8.85;75.45
43745;BME280;29359;53.048;8.732;2023-05-08T02:44:29;102425.25;;;8.81;75.47
43745;BME280;29359;53.048;8.732;2023-05-08T02:46:40;102430.53;;;8.81;76.06
43745;BME280;29359;53.048;8.732;2023-05-08T02:49:04;102427.88;;;8.78;75.57
43745;BME280;29359;53.048;8.732;2023-05-08T02:51:15;102421.75;;;8.79;75.58
43745;BME280;29359;53.048;8.732;2023-05-08T02:53:30;102427.88;;;8.78;75.52
43745;BME280;29359;53.048;8.732;2023-05-08T02:55:45;102419.97;;;8.75;75.62
43745;BME280;29359;53.048;8.732;2023-05-08T02:58:02;102421.72;;;8.73;75.70
43745;BME280;29359;53.048;8.732;2023-05-08T03:00:26;102423.47;;;8.71;75.30
43745;BME280;29359;53.048;8.732;2023-05-08T03:04:52;102418.19;;;8.69;75.04
43745;BME280;29359;53.048;8.732;2023-05-08T03:06:56;102426.03;;;8.66;75.65
43745;BME280;29359;53.048;8.732;2023-05-08T03:09:00;102421.66;;;8.65;75.56
43745;BME280;29359;53.048;8.732;2023-05-08T03:11:08;102419.88;;;8.66;75.44
43745;BME280;29359;53.048;8.732;2023-05-08T03:13:14;102422.50;;;8.63;75.42
43745;BME280;29359;53.048;8.732;2023-05-08T03:15:24;102413.72;;;8.62;76.15
43745;BME280;29359;53.048;8.732;2023-05-08T03:17:27;102410.22;;;8.62;76.32
43745;BME280;29359;53.048;8.732;2023-05-08T03:19:35;102407.59;;;8.65;75.05
43745;BME280;29359;53.048;8.732;2023-05-08T03:21:39;102405.84;;;8.64;74.77
43745;BME280;29359;53.048;8.732;2023-05-08T03:23:43;102402.31;;;8.60;75.49
43745;BME280;29359;53.048;8.732;2023-05-08T03:25:46;102399.69;;;8.59;75.13
43745;BME280;29359;53.048;8.732;2023-05-08T03:27:49;102396.16;;;8.60;75.90
43745;BME280;29359;53.048;8.732;2023-05-08T03:29:53;102392.66;;;8.58;74.93
43745;BME280;29359;53.048;8.732;2023-05-08T03:31:57;102388.25;;;8.57;74.66
43745;BME280;29359;53.048;8.732;2023-05-08T03:34:01;102394.41;;;8.56;74.79
43745;BME280;29359;53.048;8.732;2023-05-08T03:36:03;102401.41;;;8.57;74.84
43745;BME280;29359;53.048;8.732;2023-05-08T03:38:05;102397.03;;;8.56;75.11
43745;BME280;29359;53.048;8.732;2023-05-08T03:40:08;102392.63;;;8.52;75.22
43745;BME280;29359;53.048;8.732;2023-05-08T03:42:10;102399.63;;;8.49;74.85
43745;BME280;29359;53.048;8.732;2023-05-08T03:44:22;102401.38;;;8.47;75.07
43745;BME280;29359;53.048;8.732;2023-05-08T03:46:24;102394.34;;;8.46;75.38
43745;BME280;29359;53.048;8.732;2023-05-08T03:48:27;102386.44;;;8.45;74.89
43745;BME280;29359;53.048;8.732;2023-05-08T03:50:30;102395.22;;;8.44;75.36
43745;BME280;29359;53.048;8.732;2023-05-08T03:52:32;102396.09;;;8.41;75.29
43745;BME280;29359;53.048;8.732;2023-05-08T03:54:34;102384.66;;;8.39;75.36
43745;BME280;29359;53.048;8.732;2023-05-08T03:56:36;102389.03;;;8.37;75.62
43745;BME280;29359;53.048;8.732;2023-05-08T03:58:45;102389.94;;;8.39;75.05
43745;BME280;29359;53.048;8.732;2023-05-08T04:01:04;102383.78;;;8.37;74.95
43745;BME280;29359;53.048;8.732;2023-05-08T04:03:52;102381.13;;;8.36;75.27
43745;BME280;29359;53.048;8.732;2023-05-08T04:06:14;102388.16;;;8.34;75.21
43745;BME280;29359;53.048;8.732;2023-05-08T04:08:32;102391.66;;;8.34;75.27
43745;BME280;29359;53.048;8.732;2023-05-08T04:12:54;102395.19;;;8.38;75.29
43745;BME280;29359;53.048;8.732;2023-05-08T04:15:30;102393.44;;;8.38;75.07
43745;BME280;29359;53.048;8.732;2023-05-08T04:17:33;102390.81;;;8.38;74.83
43745;BME280;29359;53.048;8.732;2023-05-08T04:19:38;102392.56;;;8.41;74.24
43745;BME280;29359;53.048;8.732;2023-05-08T04:21:44;102393.44;;;8.41;74.66
43745;BME280;29359;53.048;8.732;2023-05-08T04:23:49;102393.47;;;8.43;74.57
43745;BME280;29359;53.048;8.732;2023-05-08T04:25:51;102394.34;;;8.43;74.71
43745;BME280;29359;53.048;8.732;2023-05-08T04:27:54;102404.00;;;8.44;74.77
43745;BME280;29359;53.048;8.732;2023-05-08T04:29:57;102399.63;;;8.46;75.25
43745;BME280;29359;53.048;8.732;2023-05-08T04:32:00;102404.91;;;8.49;74.68
43745;BME280;29359;53.048;8.732;2023-05-08T04:34:02;102402.28;;;8.53;75.20
43745;BME280;29359;53.048;8.732;2023-05-08T04:36:03;102406.69;;;8.58;75.15
43745;BME280;29359;53.048;8.732;2023-05-08T04:38:05;102413.72;;;8.62;74.42
43745;BME280;29359;53.048;8.732;2023-05-08T04:40:07;102410.22;;;8.65;74.81
43745;BME280;29359;53.048;8.732;2023-05-08T04:42:10;102416.44;;;8.70;75.07
43745;BME280;29359;53.048;8.732;2023-05-08T04:44:11;102417.31;;;8.73;75.37
43745;BME280;29359;53.048;8.732;2023-05-08T04:46:13;102418.25;;;8.83;75.34
43745;BME280;29359;53.048;8.732;2023-05-08T04:48:15;102422.69;;;8.98;74.78
43745;BME280;29359;53.048;8.732;2023-05-08T04:50:17;102419.25;;;9.11;73.86
43745;BME280;29359;53.048;8.732;2023-05-08T04:52:18;102420.16;;;9.22;74.50
43745;BME280;29359;53.048;8.732;2023-05-08T04:54:20;102413.16;;;9.33;73.55
43745;BME280;29359;53.048;8.732;2023-05-08T04:56:21;102414.03;;;9.43;73.90
43745;BME280;29359;53.048;8.732;2023-05-08T04:58:23;102406.13;;;9.52;73.33
43745;BME280;29359;53.048;8.732;2023-05-08T05:00:24;102409.69;;;9.57;73.84
43745;BME280;29359;53.048;8.732;2023-05-08T05:02:26;102408.81;;;9.61;74.01
43745;BME280;29359;53.048;8.732;2023-05-08T05:04:28;102414.97;;;9.63;73.65
43745;BME280;29359;53.048;8.732;2023-05-08T05:06:29;102413.22;;;9.64;73.85
43745;BME280;29359;53.048;8.732;2023-05-08T05:08:31;102416.72;;;9.69;74.24
43745;BME280;29359;53.048;8.732;2023-05-08T05:10:33;102407.06;;;9.75;74.49
43745;BME280;29359;53.048;8.732;2023-05-08T05:12:34;102407.94;;;9.87;73.84
43745;BME280;29359;53.048;8.732;2023-05-08T05:14:36;102423.75;;;9.94;73.59
43745;BME280;29359;53.048;8.732;2023-05-08T05:16:37;102417.63;;;10.03;74.07
43745;BME280;29359;53.048;8.732;2023-05-08T05:18:39;102413.22;;;10.08;73.76
43745;BME280;29359;53.048;8.732;2023-05-08T05:20:40;102423.78;;;10.06;73.56
43745;BME280;29359;53.048;8.732;2023-05-08T05:22:42;102421.13;;;10.03;73.70
43745;BME280;29359;53.048;8.732;2023-05-08T05:24:43;102426.41;;;10.00;73.97
43745;BME280;29359;53.048;8.732;2023-05-08T05:26:45;102420.22;;;9.97;74.44
43745;BME280;29359;53.048;8.732;2023-05-08T05:28:46;102436.09;;;10.01;74.57
43745;BME280;29359;53.048;8.732;2023-05-08T05:30:48;102429.06;;;10.05;74.63
43745;BME280;29359;53.048;8.732;2023-05-08T05:32:50;102436.09;;;10.06;74.44
43745;BME280;29359;53.048;8.732;2023-05-08T05:34:51;102436.97;;;10.10;75.04
43745;BME280;29359;53.048;8.732;2023-05-08T05:36:54;102437.84;;;10.16;75.00
43745;BME280;29359;53.048;8.732;2023-05-08T05:38:55;102440.47;;;10.18;75.64
43745;BME280;29359;53.048;8.732;2023-05-08T05:40:57;102448.38;;;10.19;75.37
43745;BME280;29359;53.048;8.732;2023-05-08T05:42:58;102444.91;;;10.23;76.20
43745;BME280;29359;53.048;8.732;2023-05-08T05:45:00;102444.00;;;10.24;77.04
43745;BME280;29359;53.048;8.732;2023-05-08T05:47:02;102448.41;;;10.24;76.77
43745;BME280;29359;53.048;8.732;2023-05-08T05:49:05;102449.28;;;10.23;76.70
43745;BME280;29359;53.048;8.732;2023-05-08T05:51:07;102442.25;;;10.20;76.83
43745;BME280;29359;53.048;8.732;2023-05-08T05:53:09;102449.28;;;10.15;77.17
43745;BME280;29359;53.048;8.732;2023-05-08T05:55:10;102458.06;;;10.13;76.64
43745;BME280;29359;53.048;8.732;2023-05-08T05:57:13;102458.94;;;10.13;77.00
43745;BME280;29359;53.048;8.732;2023-05-08T05:59:14;102447.50;;;10.14;77.16
43745;BME280;29359;53.048;8.732;2023-05-08T06:01:16;102459.84;;;10.14;77.04
43745;BME280;29359;53.048;8.732;2023-05-08T06:03:17;102454.56;;;10.15;77.41
43745;BME280;29359;53.048;8.732;2023-05-08T06:05:19;102457.22;;;10.21;76.95
43745;BME280;29359;53.048;8.732;2023-05-08T06:07:21;102454.56;;;10.21;77.18
43745;BME280;29359;53.048;8.732;2023-05-08T06:09:22;102455.47;;;10.23;76.58
43745;BME280;29359;53.048;8.732;2023-05-08T06:11:24;102461.63;;;10.25;76.46
43745;BME280;29359;53.048;8.732;2023-05-08T06:13:25;102456.31;;;10.31;76.67
43745;BME280;29359;53.048;8.732;2023-05-08T06:15:27;102455.44;;;10.38;76.23
43745;BME280;29359;53.048;8.732;2023-05-08T06:17:29;102459.84;;;10.47;75.42
43745;BME280;29359;53.048;8.732;2023-05-08T06:19:30;102451.91;;;10.55;75.74
43745;BME280;29359;53.048;8.732;2023-05-08T06:21:32;102459.78;;;10.65;74.99
43745;BME280;29359;53.048;8.732;2023-05-08T06:23:34;102459.75;;;10.76;74.83
43745;BME280;29359;53.048;8.732;2023-05-08T06:25:36;102441.25;;;10.85;74.28
43745;BME280;29359;53.048;8.732;2023-05-08T06:27:38;102442.97;;;10.95;73.74
43745;BME280;29359;53.048;8.732;2023-05-08T06:29:39;102438.53;;;11.04;73.48
43745;BME280;29359;53.048;8.732;2023-05-08T06:31:41;102439.41;;;11.07;73.38
43745;BME280;29359;53.048;8.732;2023-05-08T06:33:42;102444.66;;;11.13;73.04
43745;BME280;29359;53.048;8.732;2023-05-08T06:35:47;102437.59;;;11.15;72.91
43745;BME280;29359;53.048;8.732;2023-05-08T06:37:49;102443.78;;;11.13;72.95
43745;BME280;29359;53.048;8.732;2023-05-08T06:39:50;102445.50;;;11.21;72.82
43745;BME280;29359;53.048;8.732;2023-05-08T06:42:11;102444.56;;;11.33;72.46
43745;BME280;29359;53.048;8.732;2023-05-08T06:44:13;102438.34;;;11.42;72.13
43745;BME280;29359;53.048;8.732;2023-05-08T06:46:15;102447.13;;;11.48;72.17
43745;BME280;29359;53.048;8.732;2023-05-08T06:48:16;102447.06;;;11.57;72.04
43745;BME280;29359;53.048;8.732;2023-05-08T06:50:18;102444.38;;;11.63;71.75
43745;BME280;29359;53.048;8.732;2023-05-08T06:52:19;102443.47;;;11.68;71.62
43745;BME280;29359;53.048;8.732;2023-05-08T06:54:21;102439.94;;;11.72;71.49
43745;BME280;29359;53.048;8.732;2023-05-08T06:56:22;102445.22;;;11.69;71.15
43745;BME280;29359;53.048;8.732;2023-05-08T06:58:24;102439.03;;;11.74;71.62
43745;BME280;29359;53.048;8.732;2023-05-08T07:00:26;102433.75;;;11.74;71.53
43745;BME280;29359;53.048;8.732;2023-05-08T07:02:28;102429.34;;;11.78;71.72
43745;BME280;29359;53.048;8.732;2023-05-08T07:04:29;102433.72;;;11.82;71.64
43745;BME280;29359;53.048;8.732;2023-05-08T07:06:32;102419.56;;;11.84;71.46
43745;BME280;29359;53.048;8.732;2023-05-08T07:08:35;102422.22;;;11.86;71.46
43745;BME280;29359;53.048;8.732;2023-05-08T07:10:36;102423.97;;;11.87;71.42
43745;BME280;29359;53.048;8.732;2023-05-08T07:12:38;102423.06;;;11.89;71.38
43745;BME280;29359;53.048;8.732;2023-05-08T07:14:39;102423.06;;;11.89;71.72
43745;BME280;29359;53.048;8.732;2023-05-08T07:16:41;102418.66;;;11.90;71.60
43745;BME280;29359;53.048;8.732;2023-05-08T07:18:43;102412.47;;;11.91;71.68
43745;BME280;29359;53.048;8.732;2023-05-08T07:20:44;102417.75;;;11.89;71.45
43745;BME280;29359;53.048;8.732;2023-05-08T07:22:46;102417.75;;;11.89;71.73
43745;BME280;29359;53.048;8.732;2023-05-08T07:24:47;102408.06;;;11.88;71.85
43745;BME280;29359;53.048;8.732;2023-05-08T07:26:49;102406.31;;;11.89;71.97
43745;BME280;29359;53.048;8.732;2023-05-08T07:28:51;102408.06;;;11.88;72.34
43745;BME280;29359;53.048;8.732;2023-05-08T07:30:54;102401.84;;;11.92;72.23
43745;BME280;29359;53.048;8.732;2023-05-08T07:32:56;102411.50;;;11.98;72.10
43745;BME280;29359;53.048;8.732;2023-05-08T07:34:58;102405.28;;;12.02;72.12
43745;BME280;29359;53.048;8.732;2023-05-08T07:36:59;102407.91;;;12.07;72.18
43745;BME280;29359;53.048;8.732;2023-05-08T07:39:01;102412.25;;;12.12;72.02
43745;BME280;29359;53.048;8.732;2023-05-08T07:41:02;102411.31;;;12.21;71.83
43745;BME280;29359;53.048;8.732;2023-05-08T07:43:05;102409.50;;;12.27;71.55
43745;BME280;29359;53.048;8.732;2023-05-08T07:45:08;102407.69;;;12.30;70.94
43745;BME280;29359;53.048;8.732;2023-05-08T07:47:10;102403.25;;;12.32;71.18
43745;BME280;29359;53.048;8.732;2023-05-08T07:49:13;102408.47;;;12.39;71.43
43745;BME280;29359;53.048;8.732;2023-05-08T07:51:14;102402.19;;;12.49;71.02
43745;BME280;29359;53.048;8.732;2023-05-08T07:53:16;102405.63;;;12.56;70.70
43745;BME280;29359;53.048;8.732;2023-05-08T07:55:18;102397.66;;;12.62;71.10
43745;BME280;29359;53.048;8.732;2023-05-08T07:57:20;102396.63;;;12.72;70.69
43745;BME280;29359;53.048;8.732;2023-05-08T07:59:21;102395.69;;;12.78;70.35
43745;BME280;29359;53.048;8.732;2023-05-08T08:01:23;102397.41;;;12.80;69.54
43745;BME280;29359;53.048;8.732;2023-05-08T08:03:24;102394.69;;;12.86;70.19
43745;BME280;29359;53.048;8.732;2023-05-08T08:05:26;102397.22;;;12.94;70.35
43745;BME280;29359;53.048;8.732;2023-05-08T08:07:28;102399.81;;;13.02;70.13
43745;BME280;29359;53.048;8.732;2023-05-08T08:09:30;102405.88;;;13.11;69.96
43745;BME280;29359;53.048;8.732;2023-05-08T08:11:32;102398.72;;;13.19;69.88
43745;BME280;29359;53.048;8.732;2023-05-08T08:13:34;102395.94;;;13.27;69.60
43745;BME280;29359;53.048;8.732;2023-05-08T08:15:35;102390.59;;;13.30;69.04
43745;BME280;29359;53.048;8.732;2023-05-08T08:17:37;102398.50;;;13.33;69.60
43745;BME280;29359;53.048;8.732;2023-05-08T08:19:38;102391.31;;;13.41;69.63
43745;BME280;29359;53.048;8.732;2023-05-08T08:21:41;102385.06;;;13.45;69.54
43745;BME280;29359;53.048;8.732;2023-05-08T08:23:43;102385.88;;;13.50;69.16
43745;BME280;29359;53.048;8.732;2023-05-08T08:25:45;102397.31;;;13.56;68.82
43745;BME280;29359;53.048;8.732;2023-05-08T08:27:46;102391.91;;;13.62;69.54
43745;BME280;29359;53.048;8.732;2023-05-08T08:29:48;102391.75;;;13.69;69.38
43745;BME280;29359;53.048;8.732;2023-05-08T08:31:53;102388.94;;;13.80;68.70
43745;BME280;29359;53.048;8.732;2023-05-08T08:33:54;102394.13;;;13.86;68.83
43745;BME280;29359;53.048;8.732;2023-05-08T08:35:57;102402.00;;;13.94;68.07
43745;BME280;29359;53.048;8.732;2023-05-08T08:37:58;102411.56;;;14.02;67.96
43745;BME280;29359;53.048;8.732;2023-05-08T08:40:00;102405.19;;;14.12;67.92
43745;BME280;29359;53.048;8.732;2023-05-08T08:42:02;102394.38;;;14.23;67.65
43745;BME280;29359;53.048;8.732;2023-05-08T08:44:04;102403.06;;;14.33;67.50
43745;BME280;29359;53.048;8.732;2023-05-08T08:46:11;102400.25;;;14.42;66.35
43745;BME280;29359;53.048;8.732;2023-05-08T08:48:16;102393.09;;;14.47;66.50
43745;BME280;29359;53.048;8.732;2023-05-08T08:50:20;102390.25;;;14.56;66.29
43745;BME280;29359;53.048;8.732;2023-05-08T08:52:29;102391.09;;;14.58;65.72
43745;BME280;29359;53.048;8.732;2023-05-08T08:54:33;102384.75;;;14.65;66.06
43745;BME280;29359;53.048;8.732;2023-05-08T08:56:40;102388.06;;;14.76;66.74
43745;BME280;29359;53.048;8.732;2023-05-08T08:58:49;102397.56;;;14.88;66.64
43745;BME280;29359;53.048;8.732;2023-05-08T09:00:55;102395.66;;;14.95;66.30
43745;BME280;29359;53.048;8.732;2023-05-08T09:02:57;102391.94;;;15.02;66.35
43745;BME280;29359;53.048;8.732;2023-05-08T09:04:59;102395.38;;;15.07;65.98
43745;BME280;29359;53.048;8.732;2023-05-08T09:07:03;102401.47;;;15.12;64.73
43745;BME280;29359;53.048;8.732;2023-05-08T09:09:05;102389.09;;;15.11;65.33
43745;BME280;29359;53.048;8.732;2023-05-08T09:11:07;102393.56;;;15.09;65.61
43745;BME280;29359;53.048;8.732;2023-05-08T09:13:08;102388.28;;;15.07;65.94
43745;BME280;29359;53.048;8.732;2023-05-08T09:15:10;102386.47;;;15.09;66.16
43745;BME280;29359;53.048;8.732;2023-05-08T09:17:13;102384.53;;;15.16;66.61
43745;BME280;29359;53.048;8.732;2023-05-08T09:19:15;102392.41;;;15.22;65.92
43745;BME280;29359;53.048;8.732;2023-05-08T09:21:17;102379.84;;;15.29;65.39
43745;BME280;29359;53.048;8.732;2023-05-08T09:23:19;102379.72;;;15.33;65.62
43745;BME280;29359;53.048;8.732;2023-05-08T09:25:22;102387.63;;;15.36;66.37
43745;BME280;29359;53.048;8.732;2023-05-08T09:27:25;102384.97;;;15.36;66.01
43745;BME280;29359;53.048;8.732;2023-05-08T09:29:27;102383.28;;;15.32;65.73
43745;BME280;29359;53.048;8.732;2023-05-08T09:31:38;102388.63;;;15.32;66.06
43745;BME280;29359;53.048;8.732;2023-05-08T09:33:43;102395.66;;;15.35;67.07
43745;BME280;29359;53.048;8.732;2023-05-08T09:35:46;102398.13;;;15.43;66.75
43745;BME280;29359;53.048;8.732;2023-05-08T09:37:48;102388.19;;;15.51;67.08
43745;BME280;29359;53.048;8.732;2023-05-08T09:39:50;102389.78;;;15.59;66.57
43745;BME280;29359;53.048;8.732;2023-05-08T09:42:01;102382.44;;;15.70;66.49
43745;BME280;29359;53.048;8.732;2023-05-08T09:44:05;102387.47;;;15.81;66.25
43745;BME280;29359;53.048;8.732;2023-05-08T09:48:36;102392.00;;;16.13;64.30
43745;BME280;29359;53.048;8.732;2023-05-08T09:50:38;102382.78;;;16.25;64.12
43745;BME280;29359;53.048;8.732;2023-05-08T09:52:46;102384.19;;;16.38;64.04
43745;BME280;29359;53.048;8.732;2023-05-08T09:54:56;102379.47;;;16.49;63.12
43745;BME280;29359;53.048;8.732;2023-05-08T09:56:59;102378.28;;;16.59;63.80
43745;BME280;29359;53.048;8.732;2023-05-08T09:59:02;102379.69;;;16.73;63.50
43745;BME280;29359;53.048;8.732;2023-05-08T10:01:05;102382.81;;;16.87;63.01
43745;BME280;29359;53.048;8.732;2023-05-08T10:03:07;102374.66;;;16.93;61.53
43745;BME280;29359;53.048;8.732;2023-05-08T10:05:29;102373.50;;;17.02;63.09
43745;BME280;29359;53.048;8.732;2023-05-08T10:07:35;102376.00;;;17.08;63.80
43745;BME280;29359;53.048;8.732;2023-05-08T10:09:37;102372.13;;;17.18;63.26
43745;BME280;29359;53.048;8.732;2023-05-08T10:11:52;102369.09;;;17.28;63.29
43745;BME280;29359;53.048;8.732;2023-05-08T10:13:54;102369.81;;;17.34;64.18
43745;BME280;29359;53.048;8.732;2023-05-08T10:15:55;102371.47;;;17.39;64.15
43745;BME280;29359;53.048;8.732;2023-05-08T10:18:05;102356.97;;;17.46;62.56
43745;BME280;29359;53.048;8.732;2023-05-08T10:20:07;102362.06;;;17.54;62.41
43745;BME280;29359;53.048;8.732;2023-05-08T10:22:10;102366.19;;;17.64;62.29
43745;BME280;29359;53.048;8.732;2023-05-08T10:24:16;102366.66;;;17.78;62.33
43745;BME280;29359;53.048;8.732;2023-05-08T10:26:24;102369.72;;;17.93;60.94
43745;BME280;29359;53.048;8.732;2023-05-08T10:30:49;102370.16;;;18.05;64.79
43745;BME280;29359;53.048;8.732;2023-05-08T10:32:52;102361.88;;;18.13;63.19
43745;BME280;29359;53.048;8.732;2023-05-08T10:34:58;102358.78;;;18.25;63.63
43745;BME280;29359;53.048;8.732;2023-05-08T10:37:00;102363.50;;;18.42;62.87
43745;BME280;29359;53.048;8.732;2023-05-08T10:39:02;102357.69;;;18.54;63.38
43745;BME280;29359;53.048;8.732;2023-05-08T10:41:04;102361.94;;;18.60;64.26
43745;BME280;29359;53.048;8.732;2023-05-08T10:43:06;102359.91;;;18.68;64.70
43745;BME280;29359;53.048;8.732;2023-05-08T10:45:08;102363.94;;;18.79;62.34
43745;BME280;29359;53.048;8.732;2023-05-08T10:51:54;102355.94;;;19.89;58.66
43745;BME280;29359;53.048;8.732;2023-05-08T10:54:07;102345.44;;;20.25;56.23
43745;BME280;29359;53.048;8.732;2023-05-08T10:56:11;102338.00;;;20.70;55.99
43745;BME280;29359;53.048;8.732;2023-05-08T10:58:28;102340.25;;;21.17;57.56
43745;BME280;29359;53.048;8.732;2023-05-08T11:03:04;102340.97;;;21.76;57.05
43745;BME280;29359;53.048;8.732;2023-05-08T11:05:19;102338.53;;;22.23;52.97
43745;BME280;29359;53.048;8.732;2023-05-08T11:07:29;102343.59;;;22.62;53.07
43745;BME280;29359;53.048;8.732;2023-05-08T11:11:55;102333.69;;;23.43;48.87
43745;BME280;29359;53.048;8.732;2023-05-08T11:14:13;102327.72;;;23.68;50.50
43745;BME280;29359;53.048;8.732;2023-05-08T11:16:16;102337.25;;;23.89;49.73
43745;BME280;29359;53.048;8.732;2023-05-08T11:18:18;102327.38;;;24.18;49.13
43745;BME280;29359;53.048;8.732;2023-05-08T11:20:22;102333.03;;;24.43;48.98
43745;BME280;29359;53.048;8.732;2023-05-08T11:22:26;102335.22;;;24.65;48.07
43745;BME280;29359;53.048;8.732;2023-05-08T11:24:35;102326.38;;;24.78;50.46
43745;BME280;29359;53.048;8.732;2023-05-08T11:26:38;102334.94;;;24.98;48.17
43745;BME280;29359;53.048;8.732;2023-05-08T11:30:53;102326.19;;;25.49;46.80
43745;BME280;29359;53.048;8.732;2023-05-08T11:35:01;102327.31;;;25.98;44.96
43745;BME280;29359;53.048;8.732;2023-05-08T11:37:08;102328.81;;;25.77;42.17